Highland Heights, KY (41076)

12:22 PM EDT on August 22, 2014 (GMT -0400)
Taylor Mill | Change Station
CLOSE
Current Station
Personal Weather Station
Location: Taylor Mill, KY
Elevation: 916 ft
Nearby Weather Stations

Elev 916 ft 38.99 °N, 84.50 °W | Updated 2 seconds ago

Mostly Cloudy
Mostly Cloudy
77.2 °F
Feels Like 79 °F
N
5.0
Wind Variable Wind from NNW
Gusts 6.0 mph

Today
High -- | Low -- °F
--% Chance of Precip.
Yesterday
High -- | Low -- °F
Precip. -- in
6:57 AM 8:23 PM
Waning Crescent, 8% visible
Pressure 30.00 in
Visibility 9.0 miles
Clouds Mostly Cloudy 2400 ft
Heat Index 79 °F
Dew Point 74 °F
Humidity 89%
Rainfall 0.80 in
Snow Depth Not available.
UV 2.9 out of 12
Pollen 10.10 out of 12
Air Quality Not available.
Flu Activity Not available.
METAR KLUK 221553Z 00000KT 9SM BKN024 25/23 A3001 RMK AO2 SLP157 T02500233

More Conditions Fewer Conditions

Pressure 30.00 in
Visibility 9.0 miles
Clouds Mostly Cloudy 2400 ft
Heat Index 79 °F
Dew Point 74 °F
Humidity 89%
Rainfall 0.80 in
Snow Depth Not available.
UV 2.9 out of 12
Pollen 10.10 out of 12
Air Quality Not available.
Flu Activity Not available.
METAR KLUK 221553Z 00000KT 9SM BKN024 25/23 A3001 RMK AO2 SLP157 T02500233

More Conditions Fewer Conditions

10-Day Weather Forecast

Almanac

Astronomy

Aug. 22, 2014 Rise Set
Actual Time 6:57 AM EDT 8:23 PM EDT
Civil Twilight 6:29 AM EDT 8:50 PM EDT
Nautical Twilight 5:55 AM EDT 9:24 PM EDT
Astronomical Twilight 5:20 AM EDT 9:59 PM EDT
Moon 4:19 AM EDT 6:30 PM EDT
Length of Visible Light 14h 21m
Length of Day
13h 25m
Tomorrow will be 2m 21s shorter.
Waning Crescent, 8% of the Moon is Illuminated
Today
Waning Crescent
Aug 25
New
Sep 2
First Quarter
Sep 8
Full
Sep 15
Last Quarter

Today's Extremes

State Highs State Lows

Community

WunderPhotos

Upload Photos

1,746,194 photos uploaded!

Nearby

Snow Depth

Station Depth Elevation
No new snow has been reported.

Earthquake Activity

City Distance Mag. Time & Date
No recent earthquake activity has been reported nearby.
Minimum magnitude displayed is 2.5.

Coastal Water Temperatures

Place Temperature
No Stations Reporting

Nearby Weather Stations